Time;durP1;ratioP1;P1;durP2;ratioP2;P2;SDS_P1;SDS_P2;PMS_P1;PMS_P2;Temp;Humidity;BMP_temperature;BMP_pressure;BME280_temperature;BME280_humidity;BME280_pressure;Samples;Min_cycle;Max_cycle;Signal;HPM_P1;HPM_P2
2022/11/04 00:03:27;;;;;;;10.88;7.60;;;;;;;3.51;82.80;100447.91;3196765;87;21047;-76
2022/11/04 00:08:24;;;;;;;14.73;9.03;;;;;;;3.47;82.71;100444.72;3201127;87;21097;-76
2022/11/04 00:13:16;;;;;;;11.73;8.78;;;;;;;3.42;82.76;100446.70;3186427;86;20987;-75
2022/11/04 00:18:07;;;;;;;15.20;8.58;;;;;;;3.40;82.93;100440.63;3147777;86;21012;-76
2022/11/04 00:33:25;;;;;;;12.43;8.53;;;;;;;3.32;82.97;100408.58;3203157;86;21025;-73
2022/11/04 00:38:17;;;;;;;15.68;8.30;;;;;;;3.31;83.09;100407.23;3197804;87;21058;-76
2022/11/04 00:43:08;;;;;;;13.48;8.90;;;;;;;3.30;83.08;100410.21;3202208;87;21010;-76
2022/11/04 00:47:59;;;;;;;12.90;8.60;;;;;;;3.31;83.49;100388.86;3209284;86;20890;-76
2022/11/04 00:52:50;;;;;;;12.58;8.95;;;;;;;3.34;83.68;100383.81;3192667;87;21324;-73
2022/11/04 00:57:41;;;;;;;9.65;7.10;;;;;;;3.34;83.68;100381.25;3180259;87;21392;-73
2022/11/04 01:02:32;;;;;;;15.13;8.45;;;;;;;3.39;83.99;100378.45;3196432;87;21487;-73
2022/11/04 01:07:23;;;;;;;12.93;8.33;;;;;;;3.42;84.06;100373.45;3172733;86;21057;-73
2022/11/04 01:12:14;;;;;;;13.55;8.50;;;;;;;3.48;84.40;100356.52;3206084;87;20965;-73
2022/11/04 01:17:05;;;;;;;13.95;8.63;;;;;;;3.51;84.48;100352.80;3193462;86;20986;-74
2022/11/04 01:21:56;;;;;;;13.22;8.83;;;;;;;3.55;84.67;100341.81;3217825;87;21046;-73
2022/11/04 01:26:47;;;;;;;14.95;9.95;;;;;;;3.58;84.74;100338.09;3243073;87;21805;-73
2022/11/04 01:31:39;;;;;;;16.90;9.10;;;;;;;3.61;84.96;100324.04;3211926;87;20989;-73
2022/11/04 01:36:30;;;;;;;14.33;8.20;;;;;;;3.64;85.66;100326.73;3198863;87;21619;-73
2022/11/04 01:41:26;;;;;;;16.67;8.78;;;;;;;3.70;85.29;100316.71;3182780;86;20994;-73
2022/11/04 01:46:43;;;;;;;15.50;8.65;;;;;;;3.78;85.60;100312.72;3239059;86;21702;-76
2022/11/04 01:51:37;;;;;;;17.80;9.70;;;;;;;3.86;85.66;100308.27;3184569;88;21079;-73
2022/11/04 01:56:28;;;;;;;13.68;8.43;;;;;;;3.92;85.87;100296.94;3163258;87;21039;-73
2022/11/04 02:01:20;;;;;;;12.90;9.03;;;;;;;3.96;85.90;100288.51;3174432;86;21105;-73
2022/11/04 02:06:10;;;;;;;16.20;7.87;;;;;;;4.02;85.96;100287.43;3165836;87;21050;-74
2022/11/04 02:11:03;;;;;;;17.87;8.70;;;;;;;4.06;86.13;100282.89;3226968;87;21198;-74
2022/11/04 02:16:16;;;;;;;15.75;9.40;;;;;;;4.13;86.24;100267.23;3192521;86;21721;-74
2022/11/04 02:21:38;;;;;;;11.18;7.95;;;;;;;4.14;86.16;100272.44;3189786;87;21593;-74
2022/11/04 02:27:01;;;;;;;13.05;8.18;;;;;;;4.16;86.24;100259.21;3191758;87;21128;-74
2022/11/04 02:32:13;;;;;;;16.00;8.55;;;;;;;4.24;86.73;100234.16;3224458;86;21557;-73
2022/11/04 02:37:16;;;;;;;16.52;8.70;;;;;;;4.37;86.97;100227.34;3231245;86;21030;-73
2022/11/04 02:42:18;;;;;;;19.42;9.23;;;;;;;4.52;86.92;100223.98;3117131;89;21628;-73
2022/11/04 02:47:19;;;;;;;16.65;9.43;;;;;;;4.61;86.82;100211.83;3137480;89;21704;-75
2022/11/04 03:03:23;;;;;;;13.00;8.95;;;;;;;4.74;86.70;100213.13;3054571;91;21255;-74
2022/11/04 03:08:33;;;;;;;15.03;8.98;;;;;;;4.77;86.73;100208.05;3027416;92;21617;-73
2022/11/04 03:13:36;;;;;;;14.75;9.38;;;;;;;4.84;86.77;100198.41;3029896;92;22177;-75
2022/11/04 03:18:45;;;;;;;16.60;8.95;;;;;;;4.94;86.78;100195.73;3069435;88;21259;-74
2022/11/04 03:23:37;;;;;;;15.28;8.53;;;;;;;5.02;86.66;100189.09;3115021;90;21082;-74
2022/11/04 03:28:51;;;;;;;15.15;9.43;;;;;;;5.14;86.62;100191.19;3084183;88;21548;-75
2022/11/04 03:33:49;;;;;;;15.15;8.43;;;;;;;5.23;86.53;100187.59;3097740;90;20990;-74
2022/11/04 03:38:41;;;;;;;13.40;8.15;;;;;;;5.28;86.47;100194.19;3067846;90;21677;-73
2022/11/04 03:43:35;;;;;;;13.13;8.45;;;;;;;5.31;86.28;100192.58;3078467;89;21075;-73
2022/11/04 03:48:27;;;;;;;14.93;8.05;;;;;;;5.35;86.31;100189.25;3067528;90;21088;-74
2022/11/04 03:53:23;;;;;;;17.57;9.43;;;;;;;5.40;86.18;100181.66;3110658;90;21007;-75
2022/11/04 03:58:19;;;;;;;13.40;8.18;;;;;;;5.45;86.11;100179.20;3160934;86;21016;-74
2022/11/04 04:03:17;;;;;;;15.33;8.60;;;;;;;5.48;86.14;100178.88;3198473;87;22221;-74
2022/11/04 04:08:35;;;;;;;12.50;7.92;;;;;;;5.52;85.96;100174.67;3203643;87;21045;-73
2022/11/04 04:13:50;;;;;;;15.83;9.00;;;;;;;5.54;85.89;100182.03;3198671;85;21014;-74
2022/11/04 04:18:52;;;;;;;13.93;8.28;;;;;;;5.59;85.85;100164.12;3219019;87;21050;-73
2022/11/04 04:29:03;;;;;;;15.03;8.90;;;;;;;5.69;85.61;100151.95;3205222;85;21238;-74
2022/11/04 04:33:54;;;;;;;16.77;8.63;;;;;;;5.74;85.54;100143.91;3201304;87;21257;-73
2022/11/04 04:49:08;;;;;;;14.40;9.05;;;;;;;5.85;85.34;100144.22;3202221;87;21023;-75
2022/11/04 04:53:59;;;;;;;13.55;8.90;;;;;;;5.88;85.29;100146.86;3209588;87;22125;-76
2022/11/04 04:58:51;;;;;;;13.00;7.33;;;;;;;5.91;85.25;100150.39;3181099;87;21411;-74
2022/11/04 05:03:42;;;;;;;9.73;7.58;;;;;;;5.96;85.25;100155.73;3170650;87;22219;-74
2022/11/04 05:08:34;;;;;;;20.32;9.43;;;;;;;6.00;85.21;100149.80;3168487;85;20993;-73
2022/11/04 05:13:25;;;;;;;11.33;8.38;;;;;;;6.03;85.22;100149.89;3180953;87;21544;-74
2022/11/04 05:18:17;;;;;;;16.02;8.18;;;;;;;6.07;85.09;100146.98;3190573;86;21049;-74
2022/11/04 05:23:11;;;;;;;12.78;7.83;;;;;;;6.09;85.00;100137.14;3224748;86;21502;-74
2022/11/04 05:28:07;;;;;;;15.25;8.60;;;;;;;6.14;84.93;100133.83;3200707;87;21080;-74
2022/11/04 05:33:00;;;;;;;11.40;7.03;;;;;;;6.17;84.86;100135.16;3178780;87;21290;-74
2022/11/04 05:37:51;;;;;;;14.38;8.15;;;;;;;6.20;84.75;100133.53;3192300;87;21079;-75
2022/11/04 05:42:43;;;;;;;13.18;7.17;;;;;;;6.25;84.60;100140.98;3188690;87;21076;-74
2022/11/04 05:47:37;;;;;;;12.58;7.05;;;;;;;6.27;84.52;100133.28;3182919;87;21527;-74
2022/11/04 05:52:29;;;;;;;13.98;8.68;;;;;;;6.31;84.48;100127.34;3151690;87;21043;-74
2022/11/04 05:57:20;;;;;;;10.25;7.10;;;;;;;6.34;84.36;100128.73;3195907;86;21050;-75
2022/11/04 06:02:11;;;;;;;14.95;8.13;;;;;;;6.40;84.23;100119.86;3166424;86;21298;-74
2022/11/04 06:07:02;;;;;;;13.20;6.78;;;;;;;6.43;84.08;100109.58;3186058;87;22074;-74
2022/11/04 06:11:54;;;;;;;11.90;7.03;;;;;;;6.49;84.01;100113.62;3194770;87;21367;-74
2022/11/04 06:16:45;;;;;;;12.88;7.15;;;;;;;6.53;83.80;100105.52;3146631;86;21089;-74
2022/11/04 06:21:36;;;;;;;10.70;7.80;;;;;;;6.59;83.70;100103.49;3157448;86;21709;-74
2022/11/04 06:26:30;;;;;;;11.57;7.47;;;;;;;6.62;83.50;100091.95;3214192;87;20992;-74
2022/11/04 06:31:21;;;;;;;12.80;8.00;;;;;;;6.64;83.58;100082.09;3160572;87;21021;-76
2022/11/04 06:36:20;;;;;;;9.13;6.95;;;;;;;6.68;83.24;100081.74;3208026;86;21121;-74
2022/11/04 06:41:16;;;;;;;11.35;6.87;;;;;;;6.72;83.27;100080.96;3214617;86;21073;-74
2022/11/04 06:46:39;;;;;;;12.28;7.53;;;;;;;6.75;83.14;100086.20;3213816;86;21074;-76
2022/11/04 06:51:32;;;;;;;10.43;6.95;;;;;;;6.78;83.00;100086.28;3190285;87;21096;-74
2022/11/04 06:56:23;;;;;;;10.48;7.60;;;;;;;6.83;82.87;100082.09;3192138;87;20991;-74
2022/11/04 07:01:17;;;;;;;15.55;8.50;;;;;;;6.92;82.69;100080.53;3189899;87;21241;-74
2022/11/04 07:06:09;;;;;;;14.15;7.97;;;;;;;6.99;82.53;100073.36;3198295;87;21025;-74
2022/11/04 07:11:02;;;;;;;12.58;8.45;;;;;;;7.08;82.33;100066.22;3197816;87;21520;-74
2022/11/04 07:15:53;;;;;;;13.30;7.78;;;;;;;7.28;81.89;100066.63;3182454;86;21018;-74
2022/11/04 07:20:44;;;;;;;13.08;9.13;;;;;;;7.28;81.89;100066.63;3171648;87;21089;-74
2022/11/04 07:25:36;;;;;;;15.25;8.35;;;;;;;7.40;81.84;100061.69;3236879;86;21178;-76
2022/11/04 07:30:27;;;;;;;13.55;8.83;;;;;;;7.53;81.58;100067.56;3175284;87;21106;-75
2022/11/04 07:35:19;;;;;;;14.25;8.78;;;;;;;7.81;81.17;100054.69;3162002;87;21524;-75
2022/11/04 07:40:11;;;;;;;11.88;8.00;;;;;;;7.81;81.17;100054.69;3179274;86;21038;-74
2022/11/04 07:45:03;;;;;;;13.55;8.95;;;;;;;7.97;80.54;100057.12;3145989;87;21098;-74
2022/11/04 07:49:54;;;;;;;14.03;8.38;;;;;;;8.07;80.56;100054.71;3165683;87;21383;-74
2022/11/04 07:54:48;;;;;;;13.72;7.55;;;;;;;8.12;80.67;100044.88;3159140;86;21457;-75
2022/11/04 07:59:39;;;;;;;12.43;8.25;;;;;;;8.21;80.31;100041.56;3181538;86;20997;-74
2022/11/04 08:04:30;;;;;;;13.25;8.55;;;;;;;8.21;80.31;100041.56;3162326;86;21795;-75
2022/11/04 08:09:22;;;;;;;12.03;8.83;;;;;;;8.37;80.11;100044.83;3187723;87;21616;-77
2022/11/04 08:14:13;;;;;;;14.33;9.05;;;;;;;8.52;79.94;100047.23;3154862;88;21007;-75
2022/11/04 08:19:05;;;;;;;15.85;8.48;;;;;;;8.59;79.49;100036.97;3187083;87;21059;-74
2022/11/04 08:23:57;;;;;;;12.15;8.10;;;;;;;8.65;79.25;100034.88;3177882;87;21806;-75
2022/11/04 08:28:50;;;;;;;10.63;7.92;;;;;;;8.72;79.06;100027.64;3216456;87;21083;-77
2022/11/04 08:33:41;;;;;;;11.22;8.20;;;;;;;8.72;79.06;100027.64;3182641;87;20979;-75
2022/11/04 08:38:33;;;;;;;11.15;8.78;;;;;;;8.78;79.19;100024.25;3190986;87;21112;-75
2022/11/04 08:43:24;;;;;;;13.60;9.30;;;;;;;8.90;78.95;100017.07;3218043;87;21014;-76
2022/11/04 08:48:22;;;;;;;16.27;9.10;;;;;;;9.07;78.52;100009.08;3219422;87;21025;-76
2022/11/04 08:53:19;;;;;;;18.95;9.78;;;;;;;9.27;78.20;100009.73;3223368;87;21122;-75
2022/11/04 08:58:33;;;;;;;11.88;7.53;;;;;;;9.33;78.02;100005.89;3175774;87;21488;-76
2022/11/04 09:03:51;;;;;;;12.20;8.00;;;;;;;9.32;77.75;99998.98;3148062;88;21097;-76
2022/11/04 09:08:43;;;;;;;10.70;8.60;;;;;;;9.25;77.49;99994.59;3142053;87;21533;-77
2022/11/04 09:13:34;;;;;;;12.28;8.03;;;;;;;9.12;77.56;99991.85;3146025;87;21795;-76
2022/11/04 09:18:32;;;;;;;12.68;8.00;;;;;;;9.07;77.55;99992.22;3132775;87;21112;-77
2022/11/04 09:23:22;;;;;;;13.43;8.55;;;;;;;9.07;77.50;99982.28;3122170;88;21092;-77
2022/11/04 09:28:14;;;;;;;13.00;8.40;;;;;;;9.01;77.32;99984.79;3138725;88;21026;-77
2022/11/04 09:33:05;;;;;;;13.10;8.28;;;;;;;8.91;77.56;99987.72;3152240;87;21046;-74
2022/11/04 09:38:00;;;;;;;14.15;7.80;;;;;;;8.83;77.73;99982.84;3133826;88;21083;-76
2022/11/04 09:43:06;;;;;;;13.90;8.95;;;;;;;8.81;78.09;99989.73;3123262;88;21124;-76
2022/11/04 09:48:08;;;;;;;13.28;8.88;;;;;;;8.78;78.66;99983.67;3148299;88;21068;-76
2022/11/04 09:53:04;;;;;;;14.00;8.18;;;;;;;8.82;78.83;99975.91;3201054;87;21532;-75
2022/11/04 09:57:57;;;;;;;15.45;8.43;;;;;;;8.92;79.10;99969.56;3187772;87;21523;-76
2022/11/04 10:03:32;;;;;;;11.68;8.65;;;;;;;9.05;78.88;99962.81;3191937;86;21004;-77
2022/11/04 10:08:58;;;;;;;15.88;9.00;;;;;;;9.22;78.73;99955.64;3195487;87;21548;-76
2022/11/04 10:14:12;;;;;;;9.90;8.38;;;;;;;9.36;78.52;99946.27;3253066;85;21518;-80
2022/11/04 10:19:52;;;;;;;14.55;8.45;;;;;;;9.47;78.08;99942.03;3252090;85;21206;-75
2022/11/04 10:25:10;;;;;;;12.45;8.65;;;;;;;9.63;78.12;99938.29;3251003;85;21055;-77
2022/11/04 10:30:07;;;;;;;11.70;8.85;;;;;;;9.91;77.57;99933.75;3166807;87;21201;-76
2022/11/04 10:35:20;;;;;;;;;;;;;;;10.46;76.56;99920.66;3163986;88;20973;-76
2022/11/04 10:40:35;;;;;;;10.05;7.35;;;;;;;11.72;74.71;99910.53;3220764;87;20164;-77
2022/11/04 10:45:33;;;;;;;11.03;7.55;;;;;;;12.50;72.43;99898.22;3236848;86;21238;-75
2022/11/04 10:56:00;;;;;;;9.25;8.05;;;;;;;12.55;72.51;99888.19;3076580;90;21557;-75
2022/11/04 11:00:53;;;;;;;12.50;7.58;;;;;;;13.94;70.07;99872.02;3094896;90;21152;-77
2022/11/04 11:06:02;;;;;;;9.80;8.30;;;;;;;15.97;67.44;99859.53;3144408;89;21648;-76
2022/11/04 11:10:52;;;;;;;11.30;7.37;;;;;;;15.58;67.38;99862.40;3153629;89;21026;-74
2022/11/04 11:15:44;;;;;;;12.28;8.40;;;;;;;14.69;68.29;99865.92;3116079;89;21005;-76
2022/11/04 11:20:36;;;;;;;8.40;6.78;;;;;;;14.79;67.95;99864.92;3147488;89;21250;-75
2022/11/04 11:25:45;;;;;;;7.80;6.75;;;;;;;14.42;67.89;99864.05;3133099;89;21182;-75
2022/11/04 11:36:43;;;;;;;12.00;7.33;;;;;;;15.73;66.17;99845.53;3030756;91;21034;-75
2022/11/04 11:42:05;;;;;;;18.32;9.03;;;;;;;15.64;65.71;99836.93;3076549;89;21265;-77
2022/11/04 11:47:37;;;;;;;8.45;6.83;;;;;;;15.42;65.25;99835.59;2989678;93;21784;-77
2022/11/04 11:52:37;;;;;;;13.48;8.33;;;;;;;15.19;65.45;99836.83;3034544;91;21572;-76
2022/11/04 11:57:46;;;;;;;10.90;7.58;;;;;;;14.44;66.04;99836.58;3035589;91;21046;-75
2022/11/04 12:03:31;;;;;;;11.38;7.70;;;;;;;13.98;66.31;99830.14;3025744;91;21394;-76
2022/11/04 12:08:28;;;;;;;13.18;8.10;;;;;;;13.65;66.20;99828.31;3095247;90;21558;-76
2022/11/04 12:13:40;;;;;;;10.28;7.25;;;;;;;13.27;66.81;99839.05;3159922;88;21657;-76
2022/11/04 12:19:29;;;;;;;8.88;7.30;;;;;;;13.02;66.77;99837.06;3197062;88;21893;-75
2022/11/04 12:24:57;;;;;;;8.05;5.80;;;;;;;12.90;66.98;99827.60;3296065;85;21036;-74
2022/11/04 12:30:20;;;;;;;8.93;6.20;;;;;;;12.71;66.97;99822.93;3258826;84;21513;-76
2022/11/04 12:35:38;;;;;;;8.43;6.20;;;;;;;12.62;66.77;99824.30;3267740;85;21066;-77
2022/11/04 12:41:12;;;;;;;;;;;;;;;12.54;66.92;99818.69;3249329;85;21078;-77
2022/11/04 12:46:27;;;;;;;10.32;6.35;;;;;;;12.64;67.27;99816.02;3177119;86;20529;-77
2022/11/04 12:51:45;;;;;;;10.03;6.72;;;;;;;12.81;67.12;99811.57;3245975;84;21042;-75
2022/11/04 12:56:40;;;;;;;9.55;5.95;;;;;;;12.77;66.87;99807.26;3256781;85;21403;-76
2022/11/04 13:01:43;;;;;;;11.60;6.08;;;;;;;12.59;66.96;99809.09;3291754;85;21706;-77
2022/11/04 13:06:48;;;;;;;11.73;6.65;;;;;;;12.46;67.31;99800.90;3293439;85;21095;-76
2022/11/04 13:12:07;;;;;;;10.08;7.22;;;;;;;12.38;67.74;99811.82;3238675;85;20955;-76
2022/11/04 13:17:11;;;;;;;7.78;5.50;;;;;;;12.27;67.62;99814.48;3322560;84;21017;-76
2022/11/04 13:22:14;;;;;;;9.63;6.08;;;;;;;12.23;67.64;99798.84;3278207;84;21274;-77
2022/11/04 13:27:26;;;;;;;9.48;6.62;;;;;;;12.18;67.49;99797.58;3289625;83;21002;-77
2022/11/04 13:32:29;;;;;;;9.55;6.35;;;;;;;12.11;67.46;99797.18;3284276;85;21006;-76
2022/11/04 13:37:41;;;;;;;9.50;6.30;;;;;;;12.04;67.95;99804.14;3260729;84;20982;-77
2022/11/04 13:43:37;;;;;;;8.83;5.97;;;;;;;11.97;68.39;99812.85;3285472;84;21167;-76
2022/11/04 13:47:57;;;;;;;7.67;5.60;;;;;;;11.83;68.41;99816.76;3303596;84;21179;-77
2022/11/04 13:53:10;;;;;;;9.45;5.87;;;;;;;11.67;68.00;99813.31;3276498;85;21043;-78
2022/11/04 13:58:04;;;;;;;13.08;6.87;;;;;;;11.55;68.12;99817.23;3273854;84;21017;-77
2022/11/04 14:03:00;;;;;;;8.68;6.20;;;;;;;11.39;68.31;99822.48;3274457;85;21005;-77
2022/11/04 14:08:09;;;;;;;9.03;6.00;;;;;;;11.26;68.37;99820.73;3243633;83;20982;-76
2022/11/04 14:13:28;;;;;;;10.88;6.25;;;;;;;11.12;68.41;99834.17;3264061;84;22520;-76
2022/11/04 14:18:43;;;;;;;12.13;7.12;;;;;;;10.98;68.83;99833.74;3190162;86;21545;-78
2022/11/04 14:23:31;;;;;;;10.38;6.78;;;;;;;10.83;68.83;99831.11;3185433;87;21061;-78
2022/11/04 14:29:00;;;;;;;10.90;7.12;;;;;;;10.68;68.86;99826.31;3213579;86;21026;-77
2022/11/04 14:34:00;;;;;;;12.25;6.25;;;;;;;10.57;69.05;99828.03;3127539;89;21559;-76
2022/11/04 14:39:02;;;;;;;9.85;6.15;;;;;;;10.43;69.46;99824.52;3098005;88;21155;-76
2022/11/04 14:43:58;;;;;;;10.15;7.37;;;;;;;10.28;69.83;99827.47;3108848;88;21556;-77
2022/11/04 14:48:54;;;;;;;10.18;6.83;;;;;;;10.16;69.89;99822.22;3084736;89;21604;-77
2022/11/04 14:53:48;;;;;;;15.18;7.78;;;;;;;10.07;70.11;99822.19;3057820;90;21814;-77
2022/11/04 14:58:56;;;;;;;12.07;7.67;;;;;;;9.99;70.57;99818.67;3088220;89;21144;-78
2022/11/04 15:03:54;;;;;;;11.22;7.25;;;;;;;9.89;70.70;99808.23;3084309;89;21034;-77
2022/11/04 15:08:50;;;;;;;11.83;7.17;;;;;;;9.83;71.07;99825.50;3166465;86;21077;-77
2022/11/04 15:14:23;;;;;;;;;;;;;;;;;;;;;
2022/11/04 15:19:18;;;;;;;10.82;7.92;;;;;;;9.74;71.46;99815.49;3213045;86;21030;-77
2022/11/04 15:24:18;;;;;;;12.18;7.28;;;;;;;9.74;71.69;99818.09;3197311;86;21524;-77
2022/11/04 15:29:11;;;;;;;11.22;8.10;;;;;;;9.73;71.92;99819.41;3306627;85;22933;-76
2022/11/04 15:34:07;;;;;;;10.00;7.53;;;;;;;9.72;72.12;99819.81;3308233;85;21021;-76
2022/11/04 15:39:22;;;;;;;11.65;8.05;;;;;;;9.73;72.33;99822.86;3277679;84;21045;-77
2022/11/04 15:44:40;;;;;;;9.25;7.05;;;;;;;9.75;72.35;99822.88;3309290;84;20982;-76
2022/11/04 15:49:40;;;;;;;13.70;8.70;;;;;;;9.76;72.59;99823.30;3270712;84;20995;-77
2022/11/04 15:54:39;;;;;;;14.25;8.73;;;;;;;9.79;72.63;99832.84;3281936;85;22117;-76
2022/11/04 15:59:48;;;;;;;10.72;7.78;;;;;;;9.81;72.71;99829.38;3283521;84;21009;-77
2022/11/04 16:05:41;;;;;;;;;;;;;;;;;;;;;
2022/11/04 16:10:31;;;;;;;13.10;9.00;;;;;;;9.80;72.97;99852.33;3295594;84;21038;-76
2022/11/04 16:15:39;;;;;;;13.22;7.95;;;;;;;9.83;72.94;99844.53;3287187;84;21571;-75
2022/11/04 16:20:33;;;;;;;13.75;9.13;;;;;;;9.85;73.01;99845.41;3318848;83;21537;-73
2022/11/04 16:25:30;;;;;;;11.25;7.75;;;;;;;9.84;73.09;99851.48;3262331;84;21129;-75
2022/11/04 16:30:24;;;;;;;14.00;8.33;;;;;;;9.83;73.11;99841.94;3334113;84;22148;-74
2022/11/04 16:35:23;;;;;;;12.23;7.90;;;;;;;9.86;73.18;99847.59;3255575;85;21049;-76
2022/11/04 16:40:27;;;;;;;11.60;8.68;;;;;;;9.86;73.32;99847.59;3260236;83;21062;-75
2022/11/04 16:45:30;;;;;;;13.05;8.95;;;;;;;9.85;73.37;99846.70;3310806;85;21586;-77
2022/11/04 16:50:26;;;;;;;11.97;8.98;;;;;;;9.85;73.42;99850.60;3301887;84;21712;-75
2022/11/04 16:55:18;;;;;;;13.03;8.78;;;;;;;9.84;73.36;99848.88;3309290;84;20983;-76
2022/11/04 17:00:21;;;;;;;13.65;8.58;;;;;;;9.84;73.50;99848.88;3249280;84;21008;-76
2022/11/04 17:05:12;;;;;;;11.93;9.50;;;;;;;9.81;73.66;99851.45;3299693;83;20959;-77
2022/11/04 17:10:11;;;;;;;12.50;8.53;;;;;;;9.79;73.66;99855.77;3323499;84;22164;-75
2022/11/04 17:15:03;;;;;;;12.73;9.13;;;;;;;9.78;73.65;99850.13;3321112;84;21026;-75
2022/11/04 17:19:55;;;;;;;12.55;8.40;;;;;;;9.77;73.74;99834.13;3264551;83;37484;-76
2022/11/04 17:24:46;;;;;;;14.47;9.48;;;;;;;9.76;73.76;99832.38;3298301;84;21001;-76
2022/11/04 17:29:41;;;;;;;13.93;9.58;;;;;;;9.74;73.80;99829.77;3313657;84;20974;-77
2022/11/04 17:34:32;;;;;;;17.65;10.05;;;;;;;9.76;73.80;99821.99;3144990;88;21575;-76
2022/11/04 17:39:23;;;;;;;14.98;9.35;;;;;;;9.72;73.87;99813.32;3202530;87;21026;-77
2022/11/04 17:44:14;;;;;;;14.83;9.43;;;;;;;9.72;73.81;99805.53;3211227;87;21054;-77
2022/11/04 17:49:22;;;;;;;11.00;9.10;;;;;;;9.70;73.91;99794.28;3190818;87;21096;-77
2022/11/04 17:54:15;;;;;;;17.00;9.75;;;;;;;9.71;73.99;99808.11;3195464;87;21917;-76
2022/11/04 17:59:08;;;;;;;22.80;10.53;;;;;;;9.68;73.99;99792.55;3192408;86;21728;-75
2022/11/04 18:04:00;;;;;;;17.20;9.50;;;;;;;9.65;74.01;99795.12;3217510;87;21100;-76
2022/11/04 18:08:53;;;;;;;26.52;13.55;;;;;;;9.64;74.10;99793.37;3168320;87;21074;-75
2022/11/04 18:13:44;;;;;;;14.38;9.93;;;;;;;9.62;73.99;99789.89;3202842;85;21469;-76
2022/11/04 18:18:35;;;;;;;14.60;10.15;;;;;;;9.59;74.03;99784.71;3216532;86;21098;-77
2022/11/04 18:23:28;;;;;;;14.80;10.20;;;;;;;9.56;73.96;99767.38;3193379;87;21857;-76
2022/11/04 18:28:20;;;;;;;16.05;10.75;;;;;;;9.56;74.08;99767.38;3173649;87;21046;-76
2022/11/04 18:33:11;;;;;;;17.40;11.15;;;;;;;9.57;73.96;99775.61;3202279;88;21003;-76
2022/11/04 18:38:02;;;;;;;16.77;9.75;;;;;;;9.56;74.02;99784.25;3203062;87;21001;-76
2022/11/04 18:42:53;;;;;;;15.00;9.65;;;;;;;9.57;74.08;99789.00;3196337;87;20994;-76
2022/11/04 18:47:48;;;;;;;14.05;9.60;;;;;;;9.54;74.05;99777.74;3262161;86;21179;-76
2022/11/04 18:52:39;;;;;;;15.98;11.80;;;;;;;9.56;74.06;99771.27;3208791;86;21169;-76
2022/11/04 18:57:31;;;;;;;21.12;14.10;;;;;;;9.55;74.07;99774.74;3139754;87;20974;-76
2022/11/04 19:02:22;;;;;;;14.98;10.58;;;;;;;9.54;74.09;99773.84;3166420;87;21202;-76
2022/11/04 19:07:13;;;;;;;13.30;8.88;;;;;;;9.53;74.06;99780.33;3169011;87;21520;-76
2022/11/04 19:17:15;;;;;;;14.05;9.68;;;;;;;9.54;74.15;99784.67;3206334;86;21017;-76
2022/11/04 19:22:07;;;;;;;15.28;9.38;;;;;;;9.55;74.21;99783.83;3225748;85;20994;-75
2022/11/04 19:26:59;;;;;;;13.20;8.78;;;;;;;9.54;74.26;99782.94;3203669;87;21121;-76
2022/11/04 19:31:50;;;;;;;11.10;8.98;;;;;;;9.54;74.26;99775.59;3185762;87;21048;-77
2022/11/04 19:36:42;;;;;;;13.90;8.83;;;;;;;9.53;74.29;99776.03;3195690;86;21996;-75
2022/11/04 19:46:36;;;;;;;15.60;8.78;;;;;;;9.54;74.40;99786.83;3071982;90;21126;-76
2022/11/04 19:51:28;;;;;;;11.78;8.58;;;;;;;9.53;74.42;99787.70;3097895;90;21207;-78
2022/11/04 19:56:21;;;;;;;11.75;8.13;;;;;;;9.51;74.42;99784.64;3067130;90;21551;-77
2022/11/04 20:01:14;;;;;;;17.70;8.10;;;;;;;9.51;74.45;99777.75;3094154;89;21038;-77
2022/11/04 20:06:09;;;;;;;11.12;8.33;;;;;;;9.48;74.52;99779.02;3097428;90;21034;-77
2022/11/04 20:11:03;;;;;;;12.43;8.48;;;;;;;9.46;74.49;99766.88;3077753;90;21385;-77
2022/11/04 20:15:55;;;;;;;10.82;8.53;;;;;;;9.43;74.52;99766.44;3077088;90;21136;-76
2022/11/04 20:20:46;;;;;;;16.00;9.20;;;;;;;9.42;74.68;99776.80;3090552;87;21117;-76
2022/11/04 20:25:37;;;;;;;13.78;9.13;;;;;;;9.37;74.74;99789.73;3152789;87;21552;-77
2022/11/04 20:30:29;;;;;;;12.05;8.35;;;;;;;9.30;74.78;99784.06;3175526;87;21681;-77
2022/11/04 20:35:20;;;;;;;13.13;8.48;;;;;;;9.23;74.92;99784.47;3194670;87;21260;-76
2022/11/04 20:40:12;;;;;;;13.62;9.93;;;;;;;9.15;75.04;99779.20;3159902;87;21086;-77
2022/11/04 20:45:05;;;;;;;13.53;8.85;;;;;;;9.12;75.11;99774.02;3133967;87;21054;-77
2022/11/04 20:49:56;;;;;;;13.40;8.53;;;;;;;9.07;75.21;99789.95;3219762;86;21064;-76
2022/11/04 20:54:52;;;;;;;14.50;9.33;;;;;;;8.98;75.43;99796.37;3209151;87;21069;-77
2022/11/04 20:59:43;;;;;;;14.63;9.27;;;;;;;8.92;75.54;99793.70;3181674;87;20989;-76
2022/11/04 21:04:35;;;;;;;12.65;8.90;;;;;;;8.86;75.66;99788.04;3206247;87;21026;-76
2022/11/04 21:09:27;;;;;;;17.12;8.93;;;;;;;8.81;75.81;99795.34;3230782;86;20967;-76
2022/11/04 21:14:19;;;;;;;10.65;8.03;;;;;;;8.74;76.03;99809.52;3191741;86;21141;-76
2022/11/04 21:19:14;;;;;;;12.25;9.80;;;;;;;8.73;76.13;99804.34;3185081;86;21006;-77
2022/11/04 21:24:15;;;;;;;11.73;8.30;;;;;;;8.71;76.28;99795.26;3230111;86;21010;-77
2022/11/04 21:29:10;;;;;;;14.50;9.63;;;;;;;8.68;76.40;99793.92;3155012;86;21030;-76
2022/11/04 21:34:03;;;;;;;15.53;10.35;;;;;;;8.68;76.43;99787.44;3183440;87;20983;-76
2022/11/04 21:38:54;;;;;;;14.23;9.10;;;;;;;8.69;76.48;99777.94;3174569;87;21166;-76
2022/11/04 21:43:45;;;;;;;10.75;9.63;;;;;;;8.71;76.44;99769.34;3146443;87;21040;-77
2022/11/04 21:48:37;;;;;;;14.13;8.48;;;;;;;8.73;76.56;99774.55;3234112;87;20999;-76
2022/11/04 21:53:29;;;;;;;13.25;9.78;;;;;;;8.73;76.62;99779.73;3173291;87;21583;-76
2022/11/04 21:58:21;;;;;;;19.62;9.25;;;;;;;8.74;76.68;99778.42;3170392;87;21091;-77
2022/11/04 22:03:12;;;;;;;13.80;10.08;;;;;;;8.74;76.64;99782.30;3170962;87;21133;-76
2022/11/04 22:08:16;;;;;;;14.85;8.93;;;;;;;8.75;76.61;99769.80;3199141;87;21157;-77
2022/11/04 22:13:08;;;;;;;15.03;10.35;;;;;;;8.76;76.59;99771.95;3230410;84;21013;-76
2022/11/04 22:17:59;;;;;;;14.60;9.10;;;;;;;8.74;76.60;99775.83;3237020;85;20998;-76
2022/11/04 22:22:50;;;;;;;12.98;8.35;;;;;;;8.73;76.62;99784.47;3267299;84;20938;-76
2022/11/04 22:27:42;;;;;;;12.07;8.55;;;;;;;8.75;76.68;99789.23;3275946;84;21945;-77
2022/11/04 22:32:33;;;;;;;11.68;8.85;;;;;;;8.74;76.78;99792.67;3294884;84;21085;-76
2022/11/04 22:37:48;;;;;;;;;;;;;;;;;;;;;
2022/11/04 22:48:23;;;;;;;10.90;9.10;;;;;;;8.71;76.87;99786.19;3310078;84;21552;-76
2022/11/04 22:53:14;;;;;;;17.32;9.73;;;;;;;8.71;76.90;99782.70;3279007;85;21216;-76
2022/11/04 22:58:06;;;;;;;12.75;9.15;;;;;;;8.68;76.87;99771.89;3292123;84;21535;-76
2022/11/04 23:02:57;;;;;;;16.07;10.30;;;;;;;8.74;76.80;99777.12;3290059;84;21405;-76
2022/11/04 23:07:48;;;;;;;12.95;9.18;;;;;;;8.76;76.81;99787.10;3262287;84;21568;-76
2022/11/04 23:37:10;;;;;;;16.73;9.95;;;;;;;8.87;76.73;99800.56;3278480;83;21007;-77
2022/11/04 23:38:12;;;;;;;12.53;10.32;;;;;;;8.88;76.63;99799.72;3241324;84;21030;-77
2022/11/04 23:43:22;;;;;;;17.75;10.30;;;;;;;8.90;76.58;99794.13;3281818;85;21077;-77
